createdAt,value
2023-11-30T00:01:35.822Z,-1.29
2023-11-30T00:04:38.459Z,-1.33
2023-11-30T00:07:41.360Z,-1.34
2023-11-30T00:10:44.043Z,-1.52
2023-11-30T00:13:46.694Z,-1.62
2023-11-30T00:16:49.368Z,-1.57
2023-11-30T00:19:52.053Z,-1.59
2023-11-30T00:22:54.735Z,-1.54
2023-11-30T00:25:57.329Z,-1.47
2023-11-30T00:29:00.250Z,-1.36
2023-11-30T00:32:02.876Z,-1.44
2023-11-30T00:35:06.074Z,-1.45
2023-11-30T00:38:08.792Z,-1.47
2023-11-30T00:41:18.072Z,-1.65
2023-11-30T00:44:22.615Z,-1.71
2023-11-30T00:47:25.397Z,-1.81
2023-11-30T00:50:28.154Z,-1.75
2023-11-30T00:53:31.364Z,-1.80
2023-11-30T00:56:34.020Z,-1.83
2023-11-30T00:59:36.623Z,-1.70
2023-11-30T01:02:39.934Z,-1.67
2023-11-30T01:05:43.240Z,-1.66
2023-11-30T01:08:45.880Z,-1.63
2023-11-30T01:11:48.554Z,-1.61
2023-11-30T01:14:51.474Z,-1.65
2023-11-30T01:17:54.286Z,-1.70
2023-11-30T01:20:57.956Z,-1.87
2023-11-30T01:24:00.744Z,-1.92
2023-11-30T01:27:03.642Z,-1.94
2023-11-30T01:30:06.835Z,-1.92
2023-11-30T01:33:09.604Z,-1.79
2023-11-30T01:36:12.421Z,-1.71
2023-11-30T01:39:16.875Z,-1.71
2023-11-30T01:42:19.605Z,-1.79
2023-11-30T01:45:22.343Z,-1.90
2023-11-30T01:48:25.271Z,-1.99
2023-11-30T01:51:28.478Z,-1.93
2023-11-30T01:54:31.577Z,-1.89
2023-11-30T01:57:34.371Z,-1.77
2023-11-30T02:00:38.081Z,-1.73
2023-11-30T02:03:41.432Z,-1.66
2023-11-30T02:06:47.716Z,-1.58
2023-11-30T02:09:50.447Z,-1.54
2023-11-30T02:12:53.118Z,-1.49
2023-11-30T02:15:55.745Z,-1.47
2023-11-30T02:18:58.900Z,-1.58
2023-11-30T02:22:01.595Z,-1.60
2023-11-30T02:25:04.532Z,-1.66
2023-11-30T02:28:07.229Z,-1.68
2023-11-30T02:31:10.017Z,-1.62
2023-11-30T02:34:12.639Z,-1.52
2023-11-30T02:37:15.319Z,-1.46
2023-11-30T02:40:17.960Z,-1.33
2023-11-30T02:43:20.662Z,-1.28
2023-11-30T02:46:23.451Z,-1.05
2023-11-30T02:49:26.098Z,-0.86
2023-11-30T02:52:28.725Z,-0.68
2023-11-30T02:55:31.356Z,-0.56
2023-11-30T02:58:33.966Z,-0.48
2023-11-30T03:01:46.855Z,-0.33
2023-11-30T03:04:49.557Z,-0.39
2023-11-30T03:07:53.133Z,-0.36
2023-11-30T03:10:55.793Z,-0.33
2023-11-30T03:13:58.448Z,-0.36
2023-11-30T03:17:01.225Z,-0.36
2023-11-30T03:20:04.003Z,-0.40
2023-11-30T03:23:06.659Z,-0.45
2023-11-30T03:26:09.294Z,-0.52
2023-11-30T03:29:12.219Z,-0.50
2023-11-30T03:32:15.296Z,-0.43
2023-11-30T03:35:17.942Z,-0.38
2023-11-30T03:38:20.668Z,-0.29
2023-11-30T03:41:24.860Z,-0.23
2023-11-30T03:44:27.618Z,-0.14
2023-11-30T03:47:30.291Z,-0.07
2023-11-30T03:50:33.009Z,-0.02
2023-11-30T03:53:35.821Z,-0.04
2023-11-30T03:56:38.588Z,-0.03
2023-11-30T03:59:41.248Z,-0.03
2023-11-30T04:02:44.048Z,-0.10
2023-11-30T04:05:46.734Z,-0.17
2023-11-30T04:08:52.659Z,-0.17
2023-11-30T04:11:55.626Z,-0.10
2023-11-30T04:14:58.344Z,0.01
2023-11-30T04:18:01.409Z,0.01
2023-11-30T04:21:06.909Z,0.00
2023-11-30T04:24:09.774Z,0.01
2023-11-30T04:27:13.267Z,-0.05
2023-11-30T04:30:16.116Z,-0.02
2023-11-30T04:33:19.135Z,0.00
2023-11-30T04:36:21.846Z,0.00
2023-11-30T04:39:25.371Z,-0.01
2023-11-30T04:42:29.353Z,0.03
2023-11-30T04:45:32.479Z,0.11
2023-11-30T04:48:35.186Z,0.17
2023-11-30T04:51:38.484Z,0.17
2023-11-30T04:54:41.275Z,0.31
2023-11-30T04:57:43.978Z,0.28
2023-11-30T05:00:46.659Z,0.35
2023-11-30T05:03:49.450Z,0.27
2023-11-30T05:06:52.199Z,0.14
2023-11-30T05:09:55.031Z,0.26
2023-11-30T05:12:57.731Z,0.26
2023-11-30T05:16:01.151Z,0.31
2023-11-30T05:19:03.785Z,0.29
2023-11-30T05:22:06.401Z,0.33
2023-11-30T05:25:09.231Z,0.29
2023-11-30T05:28:11.934Z,0.24
2023-11-30T05:31:14.835Z,0.17
2023-11-30T05:34:17.645Z,0.14
2023-11-30T05:37:20.411Z,0.08
2023-11-30T05:40:23.030Z,0.14
2023-11-30T05:43:25.738Z,0.16
2023-11-30T05:46:28.357Z,0.27
2023-11-30T05:49:30.967Z,0.19
2023-11-30T05:52:33.655Z,0.27
2023-11-30T05:55:37.023Z,0.21
2023-11-30T05:58:39.826Z,0.20
2023-11-30T06:01:42.514Z,0.19
2023-11-30T06:04:53.116Z,0.20
2023-11-30T06:07:55.937Z,0.28
2023-11-30T06:10:58.612Z,0.28
2023-11-30T06:14:02.004Z,0.26
2023-11-30T06:17:05.173Z,0.17
2023-11-30T06:20:11.792Z,0.18
2023-11-30T06:23:14.685Z,0.20
2023-11-30T06:26:17.360Z,0.28
2023-11-30T06:29:20.317Z,0.24
2023-11-30T06:32:23.628Z,0.39
2023-11-30T06:35:27.228Z,0.34
2023-11-30T06:38:31.054Z,0.16
2023-11-30T06:41:33.726Z,0.17
2023-11-30T06:44:36.497Z,0.30
2023-11-30T06:47:39.627Z,0.21
2023-11-30T06:50:42.321Z,0.33
2023-11-30T06:53:46.512Z,0.21
2023-11-30T06:56:49.982Z,0.26
2023-11-30T06:59:54.203Z,0.15
2023-11-30T07:02:57.033Z,0.21
2023-11-30T07:06:02.861Z,0.34
2023-11-30T07:09:07.123Z,0.35
2023-11-30T07:12:12.924Z,0.46
2023-11-30T07:15:17.339Z,0.83
2023-11-30T07:18:21.244Z,1.09
2023-11-30T07:21:24.138Z,1.17
2023-11-30T07:24:26.894Z,1.01
2023-11-30T07:27:29.680Z,1.27
2023-11-30T07:30:32.447Z,1.25
2023-11-30T07:33:40.974Z,1.35
2023-11-30T07:36:43.853Z,1.37
2023-11-30T07:39:46.830Z,1.26
2023-11-30T07:42:57.465Z,1.15
2023-11-30T07:46:01.059Z,1.41
2023-11-30T07:49:05.718Z,1.66
2023-11-30T07:52:08.753Z,1.85
2023-11-30T07:55:14.864Z,1.79
2023-11-30T07:58:19.026Z,1.52
2023-11-30T08:01:21.767Z,1.40
2023-11-30T08:04:24.657Z,1.60
2023-11-30T08:07:27.874Z,1.79
2023-11-30T08:10:30.580Z,1.82
2023-11-30T08:13:34.653Z,2.08
2023-11-30T08:16:39.895Z,2.16
2023-11-30T08:19:44.446Z,2.16
2023-11-30T08:22:47.102Z,2.13
2023-11-30T08:25:49.847Z,2.00
2023-11-30T08:28:52.562Z,2.10
2023-11-30T08:31:55.236Z,1.69
2023-11-30T08:34:57.906Z,1.91
2023-11-30T08:38:00.578Z,2.08
2023-11-30T08:41:04.473Z,1.86
2023-11-30T08:44:07.225Z,2.00
2023-11-30T08:47:09.923Z,2.17
2023-11-30T08:50:13.299Z,2.00
2023-11-30T08:53:17.269Z,2.02
2023-11-30T08:56:20.269Z,2.06
2023-11-30T08:59:22.940Z,2.13
2023-11-30T09:02:25.961Z,2.14
2023-11-30T09:05:28.749Z,2.10
2023-11-30T09:08:31.532Z,2.13
2023-11-30T09:11:35.464Z,2.06
2023-11-30T09:14:38.410Z,2.01
2023-11-30T09:17:41.675Z,2.08
2023-11-30T09:20:45.268Z,1.91
2023-11-30T09:23:47.931Z,1.99
2023-11-30T09:26:52.787Z,2.00
2023-11-30T09:29:57.477Z,1.91
2023-11-30T09:33:00.505Z,1.93
2023-11-30T09:36:03.572Z,1.94
2023-11-30T09:39:09.324Z,1.87
2023-11-30T09:42:17.467Z,1.92
2023-11-30T09:45:21.424Z,1.92
2023-11-30T09:48:24.412Z,2.01
2023-11-30T09:51:39.734Z,2.03
2023-11-30T09:54:43.368Z,2.33
2023-11-30T09:57:46.164Z,2.17
2023-11-30T10:00:49.090Z,2.32
2023-11-30T10:03:54.373Z,2.40
2023-11-30T10:06:57.901Z,2.51
2023-11-30T10:10:05.011Z,2.43
2023-11-30T10:13:09.277Z,2.35
2023-11-30T10:16:12.205Z,2.12
2023-11-30T10:19:15.062Z,2.13
2023-11-30T10:22:17.796Z,2.04
2023-11-30T10:25:22.072Z,2.12
2023-11-30T10:28:24.944Z,2.39
2023-11-30T10:31:30.604Z,2.56
2023-11-30T10:34:43.993Z,2.46
2023-11-30T10:37:51.603Z,2.61
2023-11-30T10:41:00.952Z,2.84
2023-11-30T10:44:06.200Z,3.07
2023-11-30T10:47:12.518Z,3.18
2023-11-30T10:50:16.627Z,3.17
2023-11-30T10:53:36.811Z,3.10
2023-11-30T10:56:40.253Z,3.10
2023-11-30T10:59:49.348Z,3.07
2023-11-30T11:02:53.442Z,2.69
2023-11-30T11:05:57.430Z,2.74
2023-11-30T11:09:02.243Z,2.84
2023-11-30T11:12:05.366Z,3.06
2023-11-30T11:15:15.797Z,3.02
2023-11-30T11:18:19.718Z,2.88
2023-11-30T11:21:26.704Z,2.81
2023-11-30T11:24:30.766Z,2.78
2023-11-30T11:27:34.640Z,2.86
2023-11-30T11:30:45.549Z,2.83
2023-11-30T11:33:49.898Z,2.85
2023-11-30T11:36:52.609Z,2.91
2023-11-30T11:39:56.344Z,2.95
2023-11-30T11:43:00.649Z,2.85
2023-11-30T11:46:03.475Z,2.91
2023-11-30T11:49:06.308Z,2.72
2023-11-30T11:52:10.257Z,2.56
2023-11-30T11:55:14.914Z,2.51
2023-11-30T11:58:17.599Z,2.50
2023-11-30T12:01:20.314Z,2.62
2023-11-30T12:04:27.641Z,2.54
2023-11-30T12:07:30.330Z,2.82
2023-11-30T12:10:40.761Z,2.98
2023-11-30T12:13:43.690Z,3.06
2023-11-30T12:16:46.431Z,2.96
2023-11-30T12:19:49.102Z,3.06
2023-11-30T12:22:52.492Z,2.96
2023-11-30T12:25:56.648Z,3.00
2023-11-30T12:28:59.621Z,3.04
2023-11-30T12:32:02.454Z,3.00
2023-11-30T12:35:06.152Z,3.02
2023-11-30T12:38:09.500Z,2.91
2023-11-30T12:41:12.179Z,2.68
2023-11-30T12:44:14.973Z,2.71
2023-11-30T12:47:17.648Z,2.77
2023-11-30T12:50:20.832Z,2.82
2023-11-30T12:53:23.585Z,2.88
2023-11-30T12:56:28.860Z,2.85
2023-11-30T12:59:31.637Z,3.02
2023-11-30T13:02:34.375Z,3.03
2023-11-30T13:05:37.060Z,3.05
2023-11-30T13:08:39.720Z,3.05
2023-11-30T13:11:43.475Z,2.93
2023-11-30T13:14:46.102Z,2.86
2023-11-30T13:17:49.356Z,2.81
2023-11-30T13:20:52.110Z,2.85
2023-11-30T13:23:54.765Z,2.76
2023-11-30T13:26:57.417Z,2.66
2023-11-30T13:30:01.146Z,2.57
2023-11-30T13:33:05.719Z,2.63
2023-11-30T13:36:09.183Z,2.52
2023-11-30T13:39:12.135Z,2.61
2023-11-30T13:42:14.857Z,2.56
2023-11-30T13:45:17.731Z,2.75
2023-11-30T13:48:20.541Z,2.64
2023-11-30T13:51:23.639Z,2.83
2023-11-30T13:54:26.559Z,2.93
2023-11-30T13:57:29.400Z,2.99
2023-11-30T14:00:35.475Z,3.00
2023-11-30T14:03:38.916Z,2.72
2023-11-30T14:06:42.262Z,2.71
2023-11-30T14:09:45.320Z,2.85
2023-11-30T14:12:48.556Z,2.74
2023-11-30T14:15:51.357Z,2.87
2023-11-30T14:18:54.087Z,2.96
2023-11-30T14:21:56.831Z,2.75
2023-11-30T14:25:00.438Z,2.66
2023-11-30T14:28:07.821Z,2.47
2023-11-30T14:31:19.481Z,2.55
2023-11-30T14:34:22.372Z,2.57
2023-11-30T14:37:25.119Z,2.75
2023-11-30T14:40:28.189Z,2.87
2023-11-30T14:43:31.111Z,2.81
2023-11-30T14:46:35.216Z,2.85
2023-11-30T14:49:39.052Z,2.94
2023-11-30T14:52:45.475Z,2.96
2023-11-30T14:55:49.594Z,2.74
2023-11-30T14:58:52.757Z,2.85
2023-11-30T15:01:55.531Z,2.86
2023-11-30T15:04:58.323Z,2.98
2023-11-30T15:08:00.964Z,2.77
2023-11-30T15:11:03.823Z,2.73
2023-11-30T15:14:06.766Z,2.81
2023-11-30T15:17:11.201Z,2.92
2023-11-30T15:20:14.545Z,2.93
2023-11-30T15:23:17.446Z,2.97
2023-11-30T15:26:20.035Z,2.96
2023-11-30T15:29:22.747Z,2.61
2023-11-30T15:32:25.438Z,2.60
2023-11-30T15:35:29.776Z,2.62
2023-11-30T15:38:34.107Z,2.63
2023-11-30T15:41:40.847Z,2.72
2023-11-30T15:44:43.702Z,2.81
2023-11-30T15:47:46.608Z,2.90
2023-11-30T15:50:49.343Z,2.94
2023-11-30T15:53:52.836Z,2.95
2023-11-30T15:56:58.044Z,2.90
2023-11-30T16:00:00.724Z,2.88
2023-11-30T16:03:05.769Z,2.74
2023-11-30T16:06:12.058Z,2.61
2023-11-30T16:09:14.764Z,2.56
2023-11-30T16:12:17.468Z,2.71
2023-11-30T16:15:20.209Z,2.76
2023-11-30T16:18:23.415Z,2.80
2023-11-30T16:21:28.710Z,2.98
2023-11-30T16:24:31.992Z,2.89
2023-11-30T16:27:34.692Z,2.96
2023-11-30T16:30:37.403Z,3.04
2023-11-30T16:33:43.156Z,2.96
2023-11-30T16:36:46.804Z,3.05
2023-11-30T16:39:49.742Z,3.08
2023-11-30T16:42:52.510Z,3.13
2023-11-30T16:45:55.322Z,3.02
2023-11-30T16:48:59.224Z,3.09
2023-11-30T16:52:02.023Z,3.05
2023-11-30T16:55:05.395Z,3.02
2023-11-30T16:58:08.035Z,3.00
2023-11-30T17:01:11.340Z,2.92
2023-11-30T17:04:14.179Z,2.99
2023-11-30T17:07:16.822Z,3.05
2023-11-30T17:10:19.486Z,3.12
2023-11-30T17:13:23.613Z,3.17
2023-11-30T17:16:26.428Z,3.20
2023-11-30T17:19:29.157Z,3.10
2023-11-30T17:22:31.881Z,3.12
2023-11-30T17:25:34.474Z,3.24
2023-11-30T17:28:37.508Z,3.32
2023-11-30T17:31:40.223Z,3.25
2023-11-30T17:34:43.156Z,3.00
2023-11-30T17:37:45.947Z,2.83
2023-11-30T17:40:48.666Z,2.86
2023-11-30T17:43:51.391Z,2.84
2023-11-30T17:46:54.346Z,2.84
2023-11-30T17:49:57.199Z,2.95
2023-11-30T17:53:02.001Z,2.95
2023-11-30T17:56:05.100Z,2.93
2023-11-30T17:59:07.818Z,2.98
2023-11-30T18:02:10.826Z,2.95
2023-11-30T18:05:13.774Z,2.92
2023-11-30T18:08:16.444Z,3.13
2023-11-30T18:11:19.428Z,3.21
2023-11-30T18:14:23.553Z,3.29
2023-11-30T18:17:26.319Z,3.35
2023-11-30T18:20:29.101Z,3.49
2023-11-30T18:23:31.747Z,3.55
2023-11-30T18:26:34.443Z,3.57
2023-11-30T18:29:37.134Z,3.52
2023-11-30T18:32:43.169Z,3.49
2023-11-30T18:35:46.694Z,3.18
2023-11-30T18:38:51.574Z,3.28
2023-11-30T18:41:56.336Z,3.48
2023-11-30T18:44:59.135Z,3.54
2023-11-30T18:48:01.941Z,3.60
2023-11-30T18:51:06.822Z,3.65
2023-11-30T18:54:09.564Z,3.67
2023-11-30T18:57:12.241Z,3.74
2023-11-30T19:00:15.580Z,3.78
2023-11-30T19:03:18.285Z,3.79
2023-11-30T19:06:22.472Z,3.75
2023-11-30T19:09:25.229Z,3.68
2023-11-30T19:12:27.915Z,3.76
2023-11-30T19:15:34.030Z,3.69
2023-11-30T19:18:36.862Z,3.76
2023-11-30T19:21:43.644Z,3.81
2023-11-30T19:24:46.415Z,3.82
2023-11-30T19:27:49.254Z,3.78
2023-11-30T19:30:51.949Z,3.81
2023-11-30T19:33:54.667Z,3.75
2023-11-30T19:36:57.471Z,3.69
2023-11-30T19:40:02.279Z,3.73
2023-11-30T19:43:05.427Z,3.71
2023-11-30T19:46:08.163Z,3.57
2023-11-30T19:49:10.905Z,3.66
2023-11-30T19:52:13.815Z,3.82
2023-11-30T19:55:16.521Z,3.82
2023-11-30T19:58:19.158Z,3.89
2023-11-30T20:01:25.023Z,3.93
2023-11-30T20:04:28.521Z,4.07
2023-11-30T20:07:31.262Z,4.11
2023-11-30T20:10:33.923Z,4.13
2023-11-30T20:13:36.715Z,4.16
2023-11-30T20:16:43.104Z,4.18
2023-11-30T20:19:45.854Z,4.24
2023-11-30T20:22:48.491Z,4.21
2023-11-30T20:25:51.659Z,4.30
2023-11-30T20:28:54.314Z,4.32
2023-11-30T20:31:56.998Z,4.38
2023-11-30T20:34:59.673Z,4.44
2023-11-30T20:38:02.499Z,4.56
2023-11-30T20:41:05.535Z,4.53
2023-11-30T20:44:08.334Z,4.72
2023-11-30T20:47:10.982Z,4.74
2023-11-30T20:50:13.729Z,4.69
2023-11-30T20:53:16.388Z,4.69
2023-11-30T20:56:19.125Z,4.63
2023-11-30T20:59:21.763Z,4.67
2023-11-30T21:02:24.615Z,4.67
2023-11-30T21:05:27.503Z,4.69
2023-11-30T21:08:33.650Z,4.84
2023-11-30T21:11:42.421Z,4.92
2023-11-30T21:14:46.123Z,5.04
2023-11-30T21:17:48.819Z,5.11
2023-11-30T21:20:51.615Z,5.16
2023-11-30T21:23:54.398Z,5.11
2023-11-30T21:26:57.142Z,5.16
2023-11-30T21:30:00.037Z,5.22
2023-11-30T21:33:02.794Z,5.23
2023-11-30T21:36:05.983Z,5.29
2023-11-30T21:39:10.139Z,5.37
2023-11-30T21:42:12.838Z,5.40
2023-11-30T21:45:15.575Z,5.41
2023-11-30T21:48:18.344Z,5.14
2023-11-30T21:51:21.020Z,5.15
2023-11-30T21:54:23.667Z,5.23
2023-11-30T21:57:26.637Z,5.35
2023-11-30T22:00:29.400Z,5.44
2023-11-30T22:03:32.315Z,5.57
2023-11-30T22:06:35.171Z,5.59
2023-11-30T22:09:39.150Z,5.60
2023-11-30T22:12:42.502Z,5.61
2023-11-30T22:15:45.234Z,5.63
2023-11-30T22:18:47.964Z,5.71
2023-11-30T22:21:50.649Z,5.81
2023-11-30T22:24:53.372Z,5.87
2023-11-30T22:27:56.243Z,5.77
2023-11-30T22:30:59.807Z,5.79
2023-11-30T22:34:02.660Z,5.81
2023-11-30T22:37:05.475Z,5.86
2023-11-30T22:40:09.128Z,5.87
2023-11-30T22:43:11.830Z,5.91
2023-11-30T22:46:19.105Z,5.93
2023-11-30T22:49:22.188Z,5.85
2023-11-30T22:52:26.765Z,5.81
2023-11-30T22:55:29.647Z,5.81
2023-11-30T22:58:32.386Z,5.62
2023-11-30T23:01:35.563Z,5.68
2023-11-30T23:04:39.636Z,5.70
2023-11-30T23:07:44.260Z,5.81
2023-11-30T23:10:46.899Z,5.85
2023-11-30T23:13:49.524Z,6.02
2023-11-30T23:16:52.210Z,6.00
2023-11-30T23:19:54.866Z,6.07
2023-11-30T23:22:57.519Z,6.06
2023-11-30T23:26:01.054Z,6.09
2023-11-30T23:29:04.352Z,6.12
2023-11-30T23:32:07.840Z,6.18
2023-11-30T23:35:10.455Z,6.21
2023-11-30T23:38:13.136Z,6.29
2023-11-30T23:41:15.885Z,6.30
2023-11-30T23:44:18.574Z,6.29
2023-11-30T23:47:21.226Z,6.23
2023-11-30T23:50:23.906Z,6.24
2023-11-30T23:53:26.560Z,6.05
2023-11-30T23:56:29.189Z,6.06
2023-11-30T23:59:31.926Z,6.02
